Time;durP1;ratioP1;P1;durP2;ratioP2;P2;SDS_P1;SDS_P2;PMS_P1;PMS_P2;Temp;Humidity;BMP_temperature;BMP_pressure;BME280_temperature;BME280_humidity;BME280_pressure;Samples;Min_cycle;Max_cycle;Signal;HPM_P1;HPM_P2
2023/12/18 00:00:06;;;;;;;26.40;12.47;;;;;;;-145.18;100.00;46701.41;5091140;28;20047;-72
2023/12/18 00:02:31;;;;;;;24.53;11.53;;;;;;;-145.18;100.00;46701.41;5072256;28;20574;-71
2023/12/18 00:04:57;;;;;;;25.47;12.27;;;;;;;-145.18;100.00;46707.28;5082244;28;20027;-71
2023/12/18 00:07:22;;;;;;;30.63;12.10;;;;;;;-145.18;100.00;46709.22;5082742;28;20036;-72
2023/12/18 00:09:48;;;;;;;24.37;12.40;;;;;;;-145.18;100.00;46699.47;5071833;28;20036;-73
2023/12/18 00:12:13;;;;;;;20.90;11.40;;;;;;;-145.18;100.00;46711.19;5074198;28;20039;-72
2023/12/18 00:14:38;;;;;;;27.17;11.83;;;;;;;-145.18;100.00;46709.22;5086288;28;20543;-72
2023/12/18 00:17:04;;;;;;;29.00;12.27;;;;;;;-145.18;100.00;46711.19;5078579;28;20032;-68
2023/12/18 00:19:29;;;;;;;33.13;11.00;;;;;;;-145.18;100.00;46709.22;5076781;28;20496;-68
2023/12/18 00:21:55;;;;;;;27.97;12.43;;;;;;;-145.18;100.00;46703.38;5073138;28;20112;-68
2023/12/18 00:24:20;;;;;;;23.03;12.10;;;;;;;-145.18;100.00;46711.19;5072083;28;20510;-68
2023/12/18 00:26:45;;;;;;;26.97;12.80;;;;;;;-145.18;100.00;46701.41;5077553;28;20107;-67
2023/12/18 00:29:11;;;;;;;27.90;12.17;;;;;;;-145.18;100.00;46709.22;5080320;28;20032;-68
2023/12/18 00:31:36;;;;;;;24.80;11.93;;;;;;;-145.18;100.00;46705.31;5075610;28;20028;-68
2023/12/18 00:34:02;;;;;;;28.20;11.37;;;;;;;-145.18;100.00;46707.28;5091101;28;20040;-68
2023/12/18 00:36:27;;;;;;;27.07;13.20;;;;;;;-145.18;100.00;46707.28;5080300;28;20043;-68
2023/12/18 00:38:52;;;;;;;26.77;12.43;;;;;;;-145.18;100.00;46709.22;5072794;28;20154;-68
2023/12/18 00:41:18;;;;;;;28.03;11.80;;;;;;;-145.18;100.00;46701.41;5071880;28;20041;-68
2023/12/18 00:43:44;;;;;;;30.27;12.97;;;;;;;-145.18;100.00;46705.31;5072276;28;20556;-68
2023/12/18 00:46:09;;;;;;;25.80;13.43;;;;;;;-145.18;100.00;46697.50;5084376;28;20051;-68
2023/12/18 00:48:35;;;;;;;30.60;12.43;;;;;;;-145.18;100.00;46705.31;5071240;28;20037;-68
2023/12/18 00:51:00;;;;;;;23.83;12.13;;;;;;;-145.18;100.00;46709.22;5072696;28;20082;-68
2023/12/18 00:53:26;;;;;;;24.90;11.90;;;;;;;-145.18;100.00;46709.22;5077667;28;20447;-68
2023/12/18 00:55:51;;;;;;;24.97;12.33;;;;;;;-145.18;100.00;46699.47;5071090;28;20481;-68
2023/12/18 00:58:16;;;;;;;27.83;12.17;;;;;;;-145.18;100.00;46703.38;5073092;28;20043;-68
2023/12/18 01:00:42;;;;;;;33.80;12.70;;;;;;;-145.18;100.00;46711.19;5053386;28;20027;-68
2023/12/18 01:03:08;;;;;;;25.30;12.13;;;;;;;-145.18;100.00;46709.22;5071276;28;20481;-68
2023/12/18 01:05:34;;;;;;;20.90;11.00;;;;;;;-145.18;100.00;46707.28;5077960;28;20484;-68
2023/12/18 01:07:59;;;;;;;24.03;11.67;;;;;;;-145.18;100.00;46703.38;5077611;28;20268;-68
2023/12/18 01:10:25;;;;;;;25.20;11.43;;;;;;;-145.18;100.00;46699.47;5077680;28;20442;-68
2023/12/18 01:12:50;;;;;;;30.27;11.77;;;;;;;-145.18;100.00;46697.50;5086535;28;20400;-68
2023/12/18 01:15:16;;;;;;;26.77;11.80;;;;;;;-145.18;100.00;46709.22;5084169;28;20028;-68
2023/12/18 01:17:41;;;;;;;28.80;12.47;;;;;;;-145.18;100.00;46695.56;5078236;28;20064;-68
2023/12/18 01:20:07;;;;;;;27.27;13.33;;;;;;;-145.18;100.00;46697.50;5075617;28;20024;-68
2023/12/18 01:22:32;;;;;;;22.53;12.50;;;;;;;-145.18;100.00;46697.50;5070566;28;20033;-68
2023/12/18 01:24:58;;;;;;;28.20;12.13;;;;;;;-145.18;100.00;46707.28;5076482;28;20395;-68
2023/12/18 01:27:23;;;;;;;29.93;12.20;;;;;;;-145.18;100.00;46705.31;5074016;28;20060;-68
2023/12/18 01:29:48;;;;;;;29.67;12.03;;;;;;;-145.18;100.00;46705.31;5086312;28;20400;-68
2023/12/18 01:32:14;;;;;;;25.30;11.97;;;;;;;-145.18;100.00;46707.28;5077317;28;20056;-68
2023/12/18 01:34:39;;;;;;;25.10;12.60;;;;;;;-145.18;100.00;46707.28;5074688;28;20028;-68
2023/12/18 01:37:05;;;;;;;29.60;12.70;;;;;;;-145.18;100.00;46697.50;5075202;28;20032;-72
2023/12/18 01:39:31;;;;;;;31.43;13.33;;;;;;;-145.18;100.00;46703.38;5076019;28;20107;-72
2023/12/18 01:41:57;;;;;;;19.97;10.07;;;;;;;-145.18;100.00;46693.59;5079050;28;20036;-72
2023/12/18 01:44:22;;;;;;;23.27;11.60;;;;;;;-145.18;100.00;46705.31;5090242;28;20363;-72
2023/12/18 01:46:48;;;;;;;29.63;12.33;;;;;;;-145.18;100.00;46689.69;5073835;28;20036;-72
2023/12/18 01:49:13;;;;;;;28.93;11.90;;;;;;;-145.18;100.00;46705.31;5078129;28;20038;-72
2023/12/18 01:51:39;;;;;;;25.60;11.53;;;;;;;-145.18;100.00;46705.31;5088610;28;20054;-72
2023/12/18 01:54:06;;;;;;;29.00;12.30;;;;;;;-145.18;100.00;46707.28;5081125;28;20032;-72
2023/12/18 01:56:33;;;;;;;21.87;11.63;;;;;;;-145.18;100.00;46705.31;5081586;28;20027;-72
2023/12/18 01:58:59;;;;;;;27.53;11.00;;;;;;;-145.18;100.00;46707.28;5086197;28;20269;-71
2023/12/18 02:01:27;;;;;;;34.53;12.90;;;;;;;-145.18;100.00;46695.56;5076213;28;20261;-72
2023/12/18 02:03:53;;;;;;;28.90;11.90;;;;;;;-145.18;100.00;46691.66;5079156;28;20344;-71
2023/12/18 02:06:19;;;;;;;26.57;11.83;;;;;;;-145.18;100.00;46697.50;5092095;28;20268;-71
2023/12/18 02:08:45;;;;;;;23.03;12.03;;;;;;;-145.18;100.00;46703.38;5082073;28;20737;-72
2023/12/18 02:11:11;;;;;;;24.53;11.97;;;;;;;-145.18;100.00;46703.38;5074028;28;20055;-72
2023/12/18 02:13:39;;;;;;;31.20;12.47;;;;;;;-145.18;100.00;46695.56;5084813;28;20039;-72
2023/12/18 02:16:05;;;;;;;22.23;12.90;;;;;;;-145.18;100.00;46693.59;5086118;28;20265;-72
2023/12/18 02:18:31;;;;;;;24.57;11.33;;;;;;;-145.18;100.00;46691.66;5082424;28;20304;-72
2023/12/18 02:20:56;;;;;;;26.10;11.70;;;;;;;-145.18;100.00;46699.47;5077589;28;20039;-72
2023/12/18 02:23:21;;;;;;;26.33;12.27;;;;;;;-145.18;100.00;46693.59;5083501;28;20119;-71
2023/12/18 02:25:47;;;;;;;26.53;11.90;;;;;;;-145.18;100.00;46701.41;5088632;28;20028;-71
2023/12/18 02:28:16;;;;;;;30.23;12.37;;;;;;;-145.18;100.00;46699.47;5085342;28;20093;-72
2023/12/18 02:30:41;;;;;;;22.27;10.83;;;;;;;-145.18;100.00;46695.56;5081498;28;20307;-72
2023/12/18 02:33:06;;;;;;;25.70;10.97;;;;;;;-145.18;100.00;46705.31;5073770;28;20748;-72
2023/12/18 02:35:32;;;;;;;25.57;10.93;;;;;;;-145.18;100.00;46701.41;5088709;28;20039;-72
2023/12/18 02:37:57;;;;;;;21.60;10.50;;;;;;;-145.18;100.00;46705.31;5087825;28;20040;-72
2023/12/18 02:40:25;;;;;;;23.03;11.90;;;;;;;-145.18;100.00;46703.38;5085395;28;20119;-72
2023/12/18 02:42:50;;;;;;;20.17;10.93;;;;;;;-145.18;100.00;46699.47;5077379;28;20036;-72
2023/12/18 02:45:15;;;;;;;26.87;11.53;;;;;;;-145.18;100.00;46699.47;5075370;28;20307;-72
2023/12/18 02:47:41;;;;;;;27.20;12.70;;;;;;;-145.18;100.00;46687.75;5085231;28;20491;-72
2023/12/18 02:50:07;;;;;;;28.07;12.67;;;;;;;-145.18;100.00;46689.69;5073530;28;20350;-72
2023/12/18 02:52:32;;;;;;;22.47;12.70;;;;;;;-145.18;100.00;46695.56;5073000;28;20024;-72
2023/12/18 02:54:59;;;;;;;25.13;13.20;;;;;;;-145.18;100.00;46691.66;5077310;28;20498;-72
2023/12/18 02:57:24;;;;;;;27.47;13.70;;;;;;;-145.18;100.00;46699.47;5084804;28;20043;-72
2023/12/18 02:59:50;;;;;;;29.83;13.83;;;;;;;-145.18;100.00;46695.56;5086827;28;20265;-72
2023/12/18 03:02:15;;;;;;;22.70;13.70;;;;;;;-145.18;100.00;46699.47;5082146;28;20087;-72
2023/12/18 03:04:41;;;;;;;32.40;14.17;;;;;;;-145.18;100.00;46695.56;5082555;28;20459;-72
2023/12/18 03:07:08;;;;;;;30.27;14.63;;;;;;;-145.18;100.00;46695.56;5071992;28;20073;-68
2023/12/18 03:09:33;;;;;;;36.87;14.77;;;;;;;-145.18;100.00;46687.75;5082003;28;20360;-68
2023/12/18 03:11:59;;;;;;;28.97;14.03;;;;;;;-145.18;100.00;46679.94;5072542;28;20345;-68
2023/12/18 03:14:24;;;;;;;25.10;14.67;;;;;;;-145.18;100.00;46699.47;5075008;28;20048;-68
2023/12/18 03:16:49;;;;;;;29.13;14.57;;;;;;;-145.18;100.00;46697.50;5073514;28;20044;-68
2023/12/18 03:19:15;;;;;;;31.13;15.07;;;;;;;-145.18;100.00;46689.69;5080921;28;20084;-68
2023/12/18 03:21:41;;;;;;;28.77;14.57;;;;;;;-145.18;100.00;46689.69;5080257;28;20056;-68
2023/12/18 03:24:07;;;;;;;27.30;16.03;;;;;;;-145.18;100.00;46701.41;5085640;28;20299;-69
2023/12/18 03:26:32;;;;;;;34.90;15.40;;;;;;;-145.18;100.00;46687.75;5078190;28;20089;-68
2023/12/18 03:28:57;;;;;;;33.07;16.67;;;;;;;-145.18;100.00;46691.66;5073813;28;20040;-68
2023/12/18 03:31:23;;;;;;;31.33;15.47;;;;;;;-145.18;100.00;46699.47;5073000;28;20042;-68
2023/12/18 03:33:48;;;;;;;37.63;15.70;;;;;;;-145.18;100.00;46693.59;5084756;28;20047;-69
2023/12/18 03:36:13;;;;;;;34.27;16.10;;;;;;;-145.18;100.00;46701.41;5072285;28;20499;-68
2023/12/18 03:38:39;;;;;;;40.23;16.47;;;;;;;-145.18;100.00;46691.66;5078176;28;20093;-68
2023/12/18 03:41:05;;;;;;;33.43;15.20;;;;;;;-145.18;100.00;46685.78;5077409;28;20169;-68
2023/12/18 03:43:30;;;;;;;29.93;14.73;;;;;;;-145.18;100.00;46685.78;5101221;28;20560;-68
2023/12/18 03:45:56;;;;;;;34.57;15.80;;;;;;;-145.18;100.00;46699.47;5072522;28;20024;-68
2023/12/18 03:48:21;;;;;;;34.43;15.70;;;;;;;-145.18;100.00;46685.78;5073795;28;20067;-68
2023/12/18 03:50:46;;;;;;;30.30;15.67;;;;;;;-145.18;100.00;46701.41;5071237;28;20079;-68
2023/12/18 03:53:12;;;;;;;29.50;15.50;;;;;;;-145.18;100.00;46697.50;5072198;28;20051;-69
2023/12/18 03:55:38;;;;;;;40.40;15.43;;;;;;;-145.18;100.00;46685.78;5072390;28;20496;-68
2023/12/18 03:58:04;;;;;;;27.50;14.80;;;;;;;-145.18;100.00;46683.84;5077287;28;20035;-68
2023/12/18 04:00:30;;;;;;;29.00;15.47;;;;;;;-145.18;100.00;46689.69;5091281;28;20276;-69
2023/12/18 04:02:55;;;;;;;30.33;14.80;;;;;;;-145.18;100.00;46693.59;5075083;28;20117;-68
2023/12/18 04:05:22;;;;;;;34.30;16.27;;;;;;;-145.18;100.00;46683.84;5075484;28;20121;-68
2023/12/18 04:07:47;;;;;;;30.33;16.43;;;;;;;-145.18;100.00;46681.88;5073762;28;20477;-69
2023/12/18 04:10:13;;;;;;;30.53;15.70;;;;;;;-145.18;100.00;46691.66;5078075;28;20270;-68
2023/12/18 04:12:38;;;;;;;35.23;16.30;;;;;;;-145.18;100.00;46691.66;5076213;28;20154;-68
2023/12/18 04:15:06;;;;;;;30.93;16.63;;;;;;;-145.18;100.00;46681.88;5072236;28;20039;-68
2023/12/18 04:17:31;;;;;;;27.27;15.37;;;;;;;-145.18;100.00;46689.69;5083930;28;20074;-72
2023/12/18 04:19:57;;;;;;;35.27;15.93;;;;;;;-145.18;100.00;46695.56;5080517;28;20800;-72
2023/12/18 04:22:22;;;;;;;41.10;17.43;;;;;;;-145.18;100.00;46687.75;5074831;28;20051;-72
2023/12/18 04:24:47;;;;;;;32.17;16.83;;;;;;;-145.18;100.00;46681.88;5073682;28;20041;-72
2023/12/18 04:27:13;;;;;;;32.77;16.07;;;;;;;-145.18;100.00;46685.78;5082575;28;20057;-72
2023/12/18 04:29:38;;;;;;;39.17;17.13;;;;;;;-145.18;100.00;46677.97;5083507;28;20076;-72
2023/12/18 04:32:05;;;;;;;29.77;16.33;;;;;;;-145.18;100.00;46687.75;5075368;28;20503;-72
2023/12/18 04:34:30;;;;;;;33.60;16.57;;;;;;;-145.18;100.00;46681.88;5080200;28;20047;-72
2023/12/18 04:36:56;;;;;;;27.97;16.33;;;;;;;-145.18;100.00;46693.59;5085908;28;20277;-72
2023/12/18 04:39:21;;;;;;;30.37;15.90;;;;;;;-145.18;100.00;46679.94;5077306;28;20040;-72
2023/12/18 04:41:47;;;;;;;29.93;16.20;;;;;;;-145.18;100.00;46697.50;5074466;28;20040;-72
2023/12/18 04:44:12;;;;;;;31.50;17.10;;;;;;;-145.18;100.00;46687.75;5078463;28;20476;-73
2023/12/18 04:46:38;;;;;;;35.43;16.87;;;;;;;-145.18;100.00;46699.47;5088950;28;20052;-72
2023/12/18 04:49:04;;;;;;;40.80;16.83;;;;;;;-145.18;100.00;46695.56;5080251;28;20403;-72
2023/12/18 04:51:30;;;;;;;38.83;17.77;;;;;;;-145.18;100.00;46683.84;5075021;28;20036;-72
2023/12/18 04:53:56;;;;;;;34.43;16.43;;;;;;;-145.18;100.00;46693.59;5074650;28;20254;-72
2023/12/18 04:56:22;;;;;;;32.47;15.97;;;;;;;-145.18;100.00;46683.84;5071162;28;20370;-72
2023/12/18 04:58:47;;;;;;;45.47;17.03;;;;;;;-145.18;100.00;46693.59;5073710;28;20099;-72
2023/12/18 05:01:13;;;;;;;31.33;15.83;;;;;;;-145.18;100.00;46691.66;5067696;28;20697;-72
2023/12/18 05:03:38;;;;;;;42.57;18.17;;;;;;;-145.18;100.00;46695.56;5083592;28;20032;-72
2023/12/18 05:06:04;;;;;;;29.90;15.07;;;;;;;-145.18;100.00;46683.84;5077621;28;20411;-72
2023/12/18 05:08:29;;;;;;;28.53;16.83;;;;;;;-145.18;100.00;46687.75;5077089;28;20429;-72
2023/12/18 05:10:55;;;;;;;32.07;17.57;;;;;;;-145.18;100.00;46679.94;5059338;28;20035;-72
2023/12/18 05:13:20;;;;;;;35.10;17.07;;;;;;;-145.18;100.00;46693.59;5076701;28;20153;-72
2023/12/18 05:15:46;;;;;;;40.33;16.83;;;;;;;-145.18;100.00;46683.84;5082251;28;20107;-72
2023/12/18 05:18:12;;;;;;;27.80;16.37;;;;;;;-145.18;100.00;46693.59;5094663;28;20060;-72
2023/12/18 05:20:38;;;;;;;34.13;15.60;;;;;;;-145.18;100.00;46685.78;5092161;28;20517;-72
2023/12/18 05:23:03;;;;;;;34.07;16.67;;;;;;;-145.18;100.00;46691.66;5091771;28;20101;-71
2023/12/18 05:25:29;;;;;;;29.47;15.90;;;;;;;-145.18;100.00;46683.84;5085448;28;20503;-72
2023/12/18 05:27:54;;;;;;;33.60;16.70;;;;;;;-145.18;100.00;46683.84;5062640;28;20043;-72
2023/12/18 05:30:20;;;;;;;28.77;15.97;;;;;;;-145.18;100.00;46683.84;5079513;28;20488;-72
2023/12/18 05:32:46;;;;;;;32.03;16.10;;;;;;;-145.18;100.00;46683.84;5082618;28;20063;-72
2023/12/18 05:35:11;;;;;;;41.87;18.10;;;;;;;-145.18;100.00;46677.97;5080701;28;20257;-72
2023/12/18 05:37:37;;;;;;;38.67;16.13;;;;;;;-145.18;100.00;46677.97;5081166;28;20067;-72
2023/12/18 05:40:02;;;;;;;36.47;17.00;;;;;;;-145.18;100.00;46683.84;5081729;28;20039;-71
2023/12/18 05:42:28;;;;;;;37.60;16.90;;;;;;;-145.18;100.00;46691.66;5083810;28;20037;-72
2023/12/18 05:44:53;;;;;;;40.87;17.57;;;;;;;-145.18;100.00;46676.03;5087856;28;20040;-71
2023/12/18 05:47:19;;;;;;;35.93;16.53;;;;;;;-145.18;100.00;46693.59;5084739;28;20031;-68
2023/12/18 05:49:45;;;;;;;31.10;15.90;;;;;;;-145.18;100.00;46681.88;5055938;28;20420;-68
2023/12/18 05:52:10;;;;;;;35.90;16.17;;;;;;;-145.18;100.00;46695.56;5079886;28;20422;-69
2023/12/18 05:54:37;;;;;;;36.93;16.47;;;;;;;-145.18;100.00;46685.78;5074750;28;20036;-69
2023/12/18 05:57:02;;;;;;;32.27;15.80;;;;;;;-145.18;100.00;46691.66;5086102;28;20377;-68
2023/12/18 05:59:28;;;;;;;32.50;14.97;;;;;;;-145.18;100.00;46685.78;5085793;28;20264;-69
2023/12/18 06:01:53;;;;;;;30.20;15.77;;;;;;;-145.18;100.00;46691.66;5085802;28;20032;-68
2023/12/18 06:04:18;;;;;;;33.40;15.87;;;;;;;-145.18;100.00;46681.88;5078085;28;20028;-69
2023/12/18 06:06:44;;;;;;;30.70;15.57;;;;;;;-145.18;100.00;46683.84;5082905;28;20039;-68
2023/12/18 06:09:09;;;;;;;31.30;16.33;;;;;;;-145.18;100.00;46679.94;5075203;28;20505;-69
2023/12/18 06:11:35;;;;;;;31.20;15.33;;;;;;;-145.18;100.00;46681.88;5076744;28;20036;-68
2023/12/18 06:14:00;;;;;;;33.77;15.27;;;;;;;-145.18;100.00;46674.06;5078635;28;20048;-68
2023/12/18 06:16:25;;;;;;;38.27;15.93;;;;;;;-145.18;100.00;46676.03;5074242;28;20028;-68
2023/12/18 06:18:51;;;;;;;34.37;15.30;;;;;;;-145.18;100.00;46676.03;5073234;28;20548;-69
2023/12/18 06:21:17;;;;;;;29.63;15.47;;;;;;;-145.18;100.00;46685.78;5081965;28;20508;-68
2023/12/18 06:23:43;;;;;;;33.80;17.23;;;;;;;-145.18;100.00;46697.50;5085383;28;20361;-68
2023/12/18 06:26:09;;;;;;;33.30;15.80;;;;;;;-145.18;100.00;46689.69;5087314;28;20380;-68
2023/12/18 06:28:34;;;;;;;28.83;15.70;;;;;;;-145.18;100.00;46687.75;5081387;28;20252;-69
2023/12/18 06:31:00;;;;;;;28.90;16.30;;;;;;;-145.18;100.00;46683.84;5078008;28;20024;-68
2023/12/18 06:33:25;;;;;;;34.83;16.03;;;;;;;-145.18;100.00;46677.97;5085479;28;20426;-69
2023/12/18 06:35:51;;;;;;;42.47;16.30;;;;;;;-145.18;100.00;46679.94;5073559;28;20033;-69
2023/12/18 06:38:16;;;;;;;33.20;16.03;;;;;;;-145.18;100.00;46689.69;5084533;28;20040;-68
2023/12/18 06:40:41;;;;;;;36.23;15.17;;;;;;;-145.18;100.00;46687.75;5086383;28;20025;-69
2023/12/18 06:43:07;;;;;;;31.30;15.47;;;;;;;-145.18;100.00;46679.94;5085659;28;20043;-69
2023/12/18 06:45:32;;;;;;;36.77;16.13;;;;;;;-145.18;100.00;46681.88;5083909;28;20078;-69
2023/12/18 06:47:58;;;;;;;29.70;14.73;;;;;;;-145.18;100.00;46679.94;5078216;28;20055;-69
2023/12/18 06:50:23;;;;;;;29.37;16.07;;;;;;;-145.18;100.00;46677.97;5085562;28;20048;-69
2023/12/18 06:52:48;;;;;;;31.57;16.00;;;;;;;-145.18;100.00;46677.97;5102298;28;20395;-69
2023/12/18 06:55:14;;;;;;;29.27;16.70;;;;;;;-145.18;100.00;46679.94;5079227;28;20089;-68
2023/12/18 06:57:40;;;;;;;33.13;15.43;;;;;;;-145.18;100.00;46683.84;5081743;28;20039;-68
2023/12/18 07:00:06;;;;;;;31.60;15.27;;;;;;;-145.18;100.00;46681.88;5073317;28;20040;-68
2023/12/18 07:02:32;;;;;;;40.53;15.97;;;;;;;-145.18;100.00;46681.88;5063587;28;20295;-68
2023/12/18 07:04:58;;;;;;;33.73;16.37;;;;;;;-145.18;100.00;46676.03;5083219;28;20273;-69
2023/12/18 07:07:24;;;;;;;28.63;16.17;;;;;;;-145.18;100.00;46679.94;5080254;28;20032;-69
2023/12/18 07:09:50;;;;;;;31.90;15.23;;;;;;;-145.18;100.00;46695.56;5074365;28;20318;-69
2023/12/18 07:12:16;;;;;;;36.53;16.13;;;;;;;-145.18;100.00;46681.88;5080314;28;20396;-69
2023/12/18 07:14:42;;;;;;;34.17;15.43;;;;;;;-145.18;100.00;46683.84;5083719;28;20268;-69
2023/12/18 07:17:08;;;;;;;30.17;15.73;;;;;;;-145.18;100.00;46681.88;5086050;28;20420;-69
2023/12/18 07:19:33;;;;;;;29.90;15.43;;;;;;;-145.18;100.00;46683.84;5076729;28;20270;-69
2023/12/18 07:21:59;;;;;;;33.50;16.90;;;;;;;-145.18;100.00;46689.69;5073516;28;20476;-69
2023/12/18 07:24:24;;;;;;;35.87;16.37;;;;;;;-145.18;100.00;46683.84;5073765;28;20063;-69
2023/12/18 07:26:49;;;;;;;34.83;15.87;;;;;;;-145.18;100.00;46677.97;5072069;28;20491;-69
2023/12/18 07:29:15;;;;;;;35.83;15.37;;;;;;;-145.18;100.00;46670.16;5084146;28;20060;-68
2023/12/18 07:31:40;;;;;;;30.73;15.80;;;;;;;-145.18;100.00;46691.66;5076387;28;20032;-68
2023/12/18 07:34:05;;;;;;;32.30;16.17;;;;;;;-145.18;100.00;46677.97;5073360;28;20111;-69
2023/12/18 07:36:35;;;;;;;31.83;15.13;;;;;;;-145.18;100.00;46685.78;5075695;28;20044;-69
2023/12/18 07:39:00;;;;;;;31.63;16.37;;;;;;;-145.18;100.00;46681.88;5087339;28;20032;-69
2023/12/18 07:41:30;;;;;;;37.53;16.23;;;;;;;-145.18;100.00;46687.75;5074587;28;20265;-69
2023/12/18 07:43:55;;;;;;;31.83;14.93;;;;;;;-145.18;100.00;46677.97;5084368;28;20031;-68
2023/12/18 07:46:22;;;;;;;33.33;15.47;;;;;;;-145.18;100.00;46683.84;5084239;28;20261;-69
2023/12/18 07:48:48;;;;;;;33.33;16.13;;;;;;;-145.18;100.00;46683.84;5074279;28;20028;-69
2023/12/18 07:51:14;;;;;;;46.23;17.00;;;;;;;-145.18;100.00;46687.75;5072196;28;20275;-69
2023/12/18 07:53:40;;;;;;;37.03;16.17;;;;;;;-145.18;100.00;46679.94;5072118;28;20674;-68
2023/12/18 07:56:05;;;;;;;33.47;16.90;;;;;;;-145.18;100.00;46670.16;5072238;28;20341;-69
2023/12/18 07:58:31;;;;;;;40.60;17.00;;;;;;;-145.18;100.00;46689.69;5071945;28;20028;-69
2023/12/18 08:00:56;;;;;;;35.30;16.67;;;;;;;-145.18;100.00;46693.59;5083646;28;20082;-69
2023/12/18 08:03:21;;;;;;;33.60;15.23;;;;;;;-145.18;100.00;46695.56;5071965;28;20024;-68
2023/12/18 08:05:47;;;;;;;33.53;17.70;;;;;;;-145.18;100.00;46695.56;5083591;28;20111;-69
2023/12/18 08:08:12;;;;;;;32.57;16.10;;;;;;;-145.18;100.00;46681.88;5099948;28;20520;-70
2023/12/18 08:10:38;;;;;;;32.97;16.30;;;;;;;-145.18;100.00;46681.88;5094252;28;20027;-69
2023/12/18 08:13:03;;;;;;;35.57;17.57;;;;;;;-145.18;100.00;46689.69;5075862;28;20024;-69
2023/12/18 08:15:28;;;;;;;29.10;15.93;;;;;;;-145.18;100.00;46679.94;5078151;28;20031;-69
2023/12/18 08:17:54;;;;;;;36.77;17.10;;;;;;;-145.18;100.00;46677.97;5071857;28;20045;-69
2023/12/18 08:20:19;;;;;;;36.27;16.60;;;;;;;-145.18;100.00;46689.69;5078356;28;20034;-69
2023/12/18 08:22:45;;;;;;;34.17;16.53;;;;;;;-145.18;100.00;46695.56;5080091;28;20032;-69
2023/12/18 08:25:10;;;;;;;42.33;17.30;;;;;;;-145.18;100.00;46689.69;5071539;28;20034;-69
2023/12/18 08:27:35;;;;;;;33.83;16.30;;;;;;;-145.18;100.00;46693.59;5082617;28;20489;-69
2023/12/18 08:30:05;;;;;;;34.80;17.87;;;;;;;-145.18;100.00;46689.69;5078615;28;20476;-69
2023/12/18 08:32:30;;;;;;;37.13;17.63;;;;;;;-145.18;100.00;46693.59;5082109;28;20024;-69
2023/12/18 08:34:58;;;;;;;35.27;17.10;;;;;;;-145.18;100.00;46683.84;5081611;28;20279;-69
2023/12/18 08:37:23;;;;;;;32.00;15.73;;;;;;;-145.18;100.00;46676.03;5083353;28;20073;-69
2023/12/18 08:39:48;;;;;;;41.77;17.10;;;;;;;-145.18;100.00;46687.75;5074584;28;20268;-69
2023/12/18 08:42:14;;;;;;;32.87;15.50;;;;;;;-145.18;100.00;46683.84;5086431;28;20066;-69
2023/12/18 08:44:39;;;;;;;30.07;16.87;;;;;;;-145.18;100.00;46691.66;5072389;28;20052;-70
2023/12/18 08:47:05;;;;;;;33.03;16.43;;;;;;;-145.18;100.00;46687.75;5097221;28;20523;-69
2023/12/18 08:49:30;;;;;;;34.50;15.57;;;;;;;-145.18;100.00;46689.69;5087233;28;20485;-69
2023/12/18 08:51:55;;;;;;;43.87;18.53;;;;;;;-145.18;100.00;46689.69;5062864;28;20107;-69
2023/12/18 08:54:21;;;;;;;30.60;15.37;;;;;;;-145.18;100.00;46685.78;5080044;28;20033;-69
2023/12/18 08:56:47;;;;;;;29.97;15.80;;;;;;;-145.18;100.00;46691.66;5075528;28;20544;-69
2023/12/18 08:59:13;;;;;;;28.93;16.60;;;;;;;-145.18;100.00;46689.69;5079229;28;20028;-69
2023/12/18 09:01:38;;;;;;;33.30;14.90;;;;;;;-145.18;100.00;46691.66;5070080;28;20253;-69
2023/12/18 09:04:04;;;;;;;35.03;15.37;;;;;;;-145.18;100.00;46693.59;5087837;28;20021;-68
2023/12/18 09:06:30;;;;;;;30.50;16.10;;;;;;;-145.18;100.00;46691.66;5080559;28;20028;-69
2023/12/18 09:08:55;;;;;;;29.20;13.93;;;;;;;-145.18;100.00;46689.69;5077308;28;20041;-69
2023/12/18 09:11:20;;;;;;;29.40;15.73;;;;;;;-145.18;100.00;46689.69;5077954;28;20041;-69
2023/12/18 09:13:46;;;;;;;29.67;15.50;;;;;;;-145.18;100.00;46685.78;5072612;28;20413;-69
2023/12/18 09:16:12;;;;;;;32.77;15.27;;;;;;;-145.18;100.00;46691.66;5082534;28;20032;-69
2023/12/18 09:18:37;;;;;;;36.63;16.53;;;;;;;-145.18;100.00;46687.75;5079655;28;20048;-69
2023/12/18 09:21:03;;;;;;;33.17;16.43;;;;;;;-145.18;100.00;46687.75;5071053;28;20261;-70
2023/12/18 09:23:28;;;;;;;30.33;15.03;;;;;;;-145.18;100.00;46693.59;5075739;28;20106;-69
2023/12/18 09:25:54;;;;;;;35.97;15.17;;;;;;;-145.18;100.00;46685.78;5071738;28;20150;-69
2023/12/18 09:28:19;;;;;;;29.53;15.07;;;;;;;-145.18;100.00;46691.66;5071753;28;20760;-69
2023/12/18 09:30:45;;;;;;;36.70;16.33;;;;;;;-145.18;100.00;46689.69;5069362;28;20400;-69
2023/12/18 09:33:10;;;;;;;27.60;15.57;;;;;;;-145.18;100.00;46689.69;5069658;28;20031;-69
2023/12/18 09:35:36;;;;;;;28.37;15.77;;;;;;;-145.18;100.00;46687.75;5072032;28;20025;-69
2023/12/18 09:38:02;;;;;;;33.53;16.07;;;;;;;-145.18;100.00;46687.75;5077950;28;20029;-69
2023/12/18 09:40:27;;;;;;;32.93;16.67;;;;;;;-145.18;100.00;46691.66;5072828;28;20400;-69
2023/12/18 09:42:54;;;;;;;39.43;15.80;;;;;;;-145.18;100.00;46685.78;5070819;28;20273;-69
2023/12/18 09:45:23;;;;;;;29.27;16.13;;;;;;;-145.18;100.00;46687.75;5070797;28;20024;-69
2023/12/18 09:47:52;;;;;;;29.03;15.33;;;;;;;-145.18;100.00;46685.78;5074868;28;20311;-69
2023/12/18 09:50:18;;;;;;;38.00;16.57;;;;;;;-145.18;100.00;46683.84;5077744;28;20771;-69
2023/12/18 09:53:12;;;;;;;31.87;16.37;;;;;;;-145.18;100.00;46687.75;5091848;28;20257;-69
2023/12/18 09:55:38;;;;;;;30.83;15.17;;;;;;;-145.18;100.00;46683.84;5072310;28;20051;-69
2023/12/18 09:58:05;;;;;;;35.00;16.40;;;;;;;-145.18;100.00;46679.94;5076671;28;20624;-69
2023/12/18 10:00:31;;;;;;;36.63;16.97;;;;;;;-145.18;100.00;46681.88;5074168;28;20256;-69
2023/12/18 10:02:57;;;;;;;27.63;16.13;;;;;;;-145.18;100.00;46685.78;5074887;28;20649;-69
2023/12/18 10:05:23;;;;;;;32.20;15.73;;;;;;;-145.18;100.00;46681.88;5074088;28;20027;-69
2023/12/18 10:07:49;;;;;;;38.30;16.67;;;;;;;-145.18;100.00;46683.84;5078586;28;20265;-69
2023/12/18 10:10:17;;;;;;;33.50;17.03;;;;;;;-145.18;100.00;46685.78;5090723;28;20039;-69
2023/12/18 10:12:43;;;;;;;33.60;16.20;;;;;;;-145.18;100.00;46681.88;5083472;28;20404;-69
2023/12/18 10:15:09;;;;;;;32.27;16.00;;;;;;;-145.18;100.00;46683.84;5077363;28;20280;-69
2023/12/18 10:17:38;;;;;;;40.97;16.70;;;;;;;-145.18;100.00;46685.78;5100721;28;20071;-69
2023/12/18 10:20:03;;;;;;;40.27;17.37;;;;;;;-145.18;100.00;46685.78;5082053;28;20371;-69
2023/12/18 10:22:29;;;;;;;32.40;15.80;;;;;;;-145.18;100.00;46685.78;5083474;28;20271;-69
2023/12/18 10:24:58;;;;;;;34.50;16.80;;;;;;;-145.18;100.00;46683.84;5080534;28;20032;-69
2023/12/18 10:27:24;;;;;;;37.73;16.43;;;;;;;-145.18;100.00;46683.84;5065312;28;20036;-69
2023/12/18 10:29:50;;;;;;;33.33;16.27;;;;;;;-145.18;100.00;46681.88;5083286;28;20264;-70
2023/12/18 10:32:16;;;;;;;34.80;15.97;;;;;;;-145.18;100.00;46687.75;5083996;28;20506;-69
2023/12/18 10:34:43;;;;;;;34.10;15.97;;;;;;;-145.18;100.00;46683.84;5079292;28;20697;-69
2023/12/18 10:37:10;;;;;;;30.43;15.33;;;;;;;-145.18;100.00;46685.78;5083409;28;20261;-69
2023/12/18 10:39:40;;;;;;;30.63;16.00;;;;;;;-145.18;100.00;46685.78;5063249;28;20261;-69
2023/12/18 10:42:17;;;;;;;32.53;14.67;;;;;;;-145.18;100.00;46689.69;5081343;28;20277;-70
2023/12/18 10:44:44;;;;;;;36.47;15.97;;;;;;;-145.18;100.00;46689.69;5080550;28;20338;-69
2023/12/18 10:47:10;;;;;;;36.80;15.10;;;;;;;-145.18;100.00;46689.69;5084268;28;20273;-71